createdAt,value
2022-11-15T00:02:18.777Z,9.97
2022-11-15T00:05:05.618Z,9.98
2022-11-15T00:07:56.133Z,9.88
2022-11-15T00:10:43.452Z,9.84
2022-11-15T00:13:31.316Z,9.93
2022-11-15T00:16:17.769Z,9.96
2022-11-15T00:19:04.514Z,9.99
2022-11-15T00:21:50.499Z,10.04
2022-11-15T00:24:36.956Z,10.07
2022-11-15T00:27:23.729Z,9.99
2022-11-15T00:30:10.756Z,9.94
2022-11-15T00:32:57.448Z,9.94
2022-11-15T00:35:43.701Z,9.87
2022-11-15T00:38:38.752Z,9.98
2022-11-15T00:41:25.195Z,9.87
2022-11-15T00:44:12.062Z,9.88
2022-11-15T00:46:58.424Z,9.84
2022-11-15T00:49:44.447Z,9.61
2022-11-15T00:52:30.715Z,9.45
2022-11-15T00:55:19.007Z,9.49
2022-11-15T00:58:05.618Z,9.49
2022-11-15T01:00:51.921Z,9.49
2022-11-15T01:03:41.206Z,9.45
2022-11-15T01:06:27.343Z,9.37
2022-11-15T01:09:14.863Z,9.37
2022-11-15T01:12:01.082Z,9.31
2022-11-15T01:14:47.195Z,9.30
2022-11-15T01:17:33.438Z,9.29
2022-11-15T01:20:19.856Z,9.26
2022-11-15T01:23:06.106Z,9.23
2022-11-15T01:25:52.611Z,9.17
2022-11-15T01:28:41.227Z,9.09
2022-11-15T01:31:27.832Z,9.09
2022-11-15T01:34:16.039Z,8.99
2022-11-15T01:37:02.485Z,8.96
2022-11-15T01:39:48.505Z,8.88
2022-11-15T01:42:35.257Z,8.94
2022-11-15T01:45:21.408Z,8.93
2022-11-15T01:48:11.725Z,8.87
2022-11-15T01:51:00.156Z,8.81
2022-11-15T01:53:48.960Z,8.78
2022-11-15T01:56:44.076Z,8.77
2022-11-15T01:59:31.160Z,8.61
2022-11-15T02:02:17.734Z,8.58
2022-11-15T02:05:04.539Z,8.53
2022-11-15T02:07:54.972Z,8.50
2022-11-15T02:10:41.642Z,8.47
2022-11-15T02:13:29.026Z,8.42
2022-11-15T02:16:41.140Z,8.41
2022-11-15T02:19:33.228Z,8.41
2022-11-15T02:22:40.822Z,8.35
2022-11-15T02:26:10.282Z,8.41
2022-11-15T02:29:31.813Z,8.41
2022-11-15T02:32:35.785Z,8.39
2022-11-15T02:35:37.216Z,8.37
2022-11-15T02:38:50.923Z,8.30
2022-11-15T02:41:45.838Z,8.21
2022-11-15T02:44:44.849Z,8.24
2022-11-15T02:47:38.976Z,8.20
2022-11-15T02:50:56.777Z,8.34
2022-11-15T02:53:43.132Z,8.22
2022-11-15T02:56:29.794Z,8.03
2022-11-15T02:59:22.843Z,7.95
2022-11-15T03:02:39.977Z,8.10
2022-11-15T03:06:06.398Z,8.13
2022-11-15T03:09:17.482Z,8.25
2022-11-15T03:12:31.480Z,8.17
2022-11-15T03:15:30.604Z,6.87
2022-11-15T03:18:28.447Z,6.78
2022-11-15T03:21:17.794Z,7.47
2022-11-15T03:24:09.888Z,7.64
2022-11-15T03:26:58.465Z,7.45
2022-11-15T03:29:59.021Z,7.53
2022-11-15T03:32:56.995Z,7.67
2022-11-15T03:35:46.031Z,7.74
2022-11-15T03:38:34.986Z,7.71
2022-11-15T03:41:31.520Z,7.81
2022-11-15T03:44:35.797Z,7.75
2022-11-15T03:47:38.033Z,7.93
2022-11-15T03:50:25.555Z,8.02
2022-11-15T03:53:13.269Z,7.95
2022-11-15T03:55:59.705Z,7.94
2022-11-15T03:58:45.623Z,8.04
2022-11-15T04:01:32.128Z,7.96
2022-11-15T04:04:18.563Z,8.02
2022-11-15T04:07:05.081Z,8.04
2022-11-15T04:10:03.181Z,8.04
2022-11-15T04:12:49.181Z,8.07
2022-11-15T04:15:36.238Z,8.09
2022-11-15T04:18:22.879Z,8.12
2022-11-15T04:21:28.615Z,8.06
2022-11-15T04:24:15.052Z,7.98
2022-11-15T04:27:02.043Z,7.93
2022-11-15T04:29:48.729Z,7.94
2022-11-15T04:32:35.488Z,7.90
2022-11-15T04:35:22.104Z,7.85
2022-11-15T04:38:10.873Z,7.81
2022-11-15T04:41:04.395Z,7.83
2022-11-15T04:43:50.651Z,7.87
2022-11-15T04:46:36.992Z,7.76
2022-11-15T04:49:23.122Z,7.76
2022-11-15T04:52:09.680Z,7.78
2022-11-15T04:54:56.061Z,7.68
2022-11-15T04:57:48.710Z,7.67
2022-11-15T05:00:34.761Z,7.61
2022-11-15T05:03:39.347Z,7.70
2022-11-15T05:06:25.928Z,7.59
2022-11-15T05:09:14.135Z,7.59
2022-11-15T05:12:00.967Z,7.62
2022-11-15T05:14:47.081Z,7.60
2022-11-15T05:17:33.301Z,7.62
2022-11-15T05:20:19.319Z,7.64
2022-11-15T05:23:06.015Z,7.42
2022-11-15T05:25:52.581Z,7.50
2022-11-15T05:28:39.702Z,7.44
2022-11-15T05:31:28.067Z,7.49
2022-11-15T05:34:14.638Z,7.45
2022-11-15T05:37:01.438Z,7.52
2022-11-15T05:39:47.489Z,7.37
2022-11-15T05:42:34.028Z,7.38
2022-11-15T05:45:26.521Z,7.32
2022-11-15T05:48:14.458Z,6.93
2022-11-15T05:51:02.464Z,6.83
2022-11-15T05:53:50.072Z,6.97
2022-11-15T05:56:36.416Z,6.99
2022-11-15T05:59:22.822Z,6.90
2022-11-15T06:02:09.161Z,6.99
2022-11-15T06:04:55.189Z,6.91
2022-11-15T06:07:41.092Z,6.73
2022-11-15T06:10:27.930Z,6.72
2022-11-15T06:13:14.438Z,6.88
2022-11-15T06:16:01.345Z,7.03
2022-11-15T06:18:47.663Z,7.19
2022-11-15T06:21:34.106Z,7.22
2022-11-15T06:24:20.506Z,7.22
2022-11-15T06:27:06.887Z,7.21
2022-11-15T06:29:53.315Z,7.29
2022-11-15T06:32:39.518Z,7.24
2022-11-15T06:35:28.750Z,6.99
2022-11-15T06:38:14.882Z,7.00
2022-11-15T06:41:06.096Z,7.05
2022-11-15T06:43:52.305Z,7.09
2022-11-15T06:46:38.383Z,7.16
2022-11-15T06:49:24.738Z,7.17
2022-11-15T06:52:10.895Z,7.28
2022-11-15T06:54:57.280Z,7.26
2022-11-15T06:57:53.648Z,7.24
2022-11-15T07:00:40.382Z,7.35
2022-11-15T07:03:27.141Z,7.35
2022-11-15T07:06:13.485Z,7.38
2022-11-15T07:08:59.781Z,7.33
2022-11-15T07:11:46.217Z,7.44
2022-11-15T07:14:32.281Z,7.53
2022-11-15T07:17:18.499Z,7.62
2022-11-15T07:20:05.057Z,7.69
2022-11-15T07:22:51.710Z,7.75
2022-11-15T07:26:03.342Z,7.68
2022-11-15T07:28:50.062Z,7.82
2022-11-15T07:31:36.437Z,7.85
2022-11-15T07:34:22.417Z,8.00
2022-11-15T07:37:09.185Z,8.07
2022-11-15T07:39:55.533Z,7.97
2022-11-15T07:42:54.241Z,8.13
2022-11-15T07:45:45.150Z,8.35
2022-11-15T07:48:43.494Z,8.52
2022-11-15T07:51:30.633Z,8.41
2022-11-15T07:54:16.895Z,7.94
2022-11-15T07:57:10.899Z,8.51
2022-11-15T07:59:57.159Z,8.92
2022-11-15T08:02:43.800Z,9.13
2022-11-15T08:05:30.054Z,9.37
2022-11-15T08:08:16.879Z,9.58
2022-11-15T08:11:04.199Z,9.56
2022-11-15T08:13:50.239Z,9.67
2022-11-15T08:16:36.464Z,9.89
2022-11-15T08:19:22.860Z,9.79
2022-11-15T08:22:09.546Z,9.81
2022-11-15T08:24:56.060Z,9.96
2022-11-15T08:27:42.522Z,9.91
2022-11-15T08:30:31.030Z,10.18
2022-11-15T08:33:17.329Z,10.35
2022-11-15T08:36:04.245Z,10.62
2022-11-15T08:38:50.701Z,10.64
2022-11-15T08:41:39.075Z,10.62
2022-11-15T08:44:26.526Z,10.69
2022-11-15T08:47:14.575Z,10.81
2022-11-15T08:50:00.813Z,10.74
2022-11-15T08:52:46.765Z,10.67
2022-11-15T08:55:33.386Z,10.41
2022-11-15T08:58:20.152Z,10.54
2022-11-15T09:01:07.335Z,10.90
2022-11-15T09:03:53.707Z,11.29
2022-11-15T09:06:43.181Z,11.51
2022-11-15T09:09:29.982Z,11.37
2022-11-15T09:12:16.331Z,11.69
2022-11-15T09:15:03.241Z,11.64
2022-11-15T09:17:49.291Z,11.92
2022-11-15T09:20:35.713Z,12.07
2022-11-15T09:23:22.194Z,12.12
2022-11-15T09:26:09.023Z,12.26
2022-11-15T09:28:55.388Z,12.54
2022-11-15T09:31:42.108Z,12.63
2022-11-15T09:34:29.184Z,12.83
2022-11-15T09:37:15.129Z,13.03
2022-11-15T09:40:01.918Z,13.28
2022-11-15T09:43:54.108Z,13.49
2022-11-15T09:47:17.099Z,13.43
2022-11-15T09:50:17.126Z,13.61
2022-11-15T09:52:46.744Z,13.83
2022-11-15T09:55:22.646Z,13.92
2022-11-15T09:58:12.163Z,14.13
2022-11-15T10:00:47.986Z,14.25
2022-11-15T10:03:34.706Z,14.44
2022-11-15T10:06:06.143Z,14.58
2022-11-15T10:08:47.753Z,14.76
2022-11-15T10:11:39.459Z,15.07
2022-11-15T10:14:30.026Z,15.26
2022-11-15T10:18:13.662Z,15.38
2022-11-15T10:20:50.622Z,15.57
2022-11-15T10:23:23.300Z,15.86
2022-11-15T10:25:58.404Z,15.97
2022-11-15T10:28:31.782Z,16.37
2022-11-15T10:31:02.074Z,16.16
2022-11-15T10:33:36.605Z,16.62
2022-11-15T10:36:10.690Z,16.54
2022-11-15T10:38:50.309Z,16.41
2022-11-15T10:41:33.492Z,16.80
2022-11-15T10:44:33.264Z,16.69
2022-11-15T10:47:03.503Z,16.55
2022-11-15T10:49:33.948Z,16.38
2022-11-15T10:52:21.514Z,16.83
2022-11-15T10:55:06.504Z,16.74
2022-11-15T10:57:38.823Z,16.98
2022-11-15T11:00:31.209Z,17.24
2022-11-15T11:03:02.757Z,17.01
2022-11-15T11:05:42.599Z,17.01
2022-11-15T11:08:14.149Z,17.13
2022-11-15T11:11:00.179Z,17.31
2022-11-15T11:13:40.380Z,17.38
2022-11-15T11:16:23.056Z,17.46
2022-11-15T11:19:35.437Z,17.41
2022-11-15T11:22:11.740Z,17.52
2022-11-15T11:25:10.193Z,17.52
2022-11-15T11:28:14.842Z,17.43
2022-11-15T11:31:19.619Z,17.83
2022-11-15T11:34:37.716Z,17.86
2022-11-15T11:38:14.626Z,18.02
2022-11-15T11:41:30.941Z,17.99
2022-11-15T11:44:47.703Z,17.47
2022-11-15T11:47:34.746Z,17.99
2022-11-15T11:50:29.551Z,18.22
2022-11-15T11:53:46.855Z,17.76
2022-11-15T11:56:40.771Z,18.00
2022-11-15T11:59:34.560Z,18.22
2022-11-15T12:02:22.494Z,18.14
2022-11-15T12:04:54.303Z,18.35
2022-11-15T12:07:27.598Z,17.83
2022-11-15T12:10:15.235Z,18.34
2022-11-15T12:12:56.898Z,18.65
2022-11-15T12:15:34.130Z,18.83
2022-11-15T12:18:02.671Z,18.59
2022-11-15T12:20:41.759Z,18.60
2022-11-15T12:23:15.025Z,18.55
2022-11-15T12:25:58.197Z,18.35
2022-11-15T12:29:10.280Z,18.42
2022-11-15T12:31:46.974Z,18.30
2022-11-15T12:34:20.476Z,18.36
2022-11-15T12:36:50.641Z,18.26
2022-11-15T12:39:19.496Z,18.26
2022-11-15T12:42:32.696Z,18.24
2022-11-15T12:45:00.550Z,18.13
2022-11-15T12:47:29.237Z,17.58
2022-11-15T12:49:57.106Z,17.60
2022-11-15T12:52:24.858Z,17.69
2022-11-15T12:54:59.369Z,17.82
2022-11-15T12:57:39.541Z,18.01
2022-11-15T13:00:29.952Z,18.09
2022-11-15T13:03:24.372Z,18.09
2022-11-15T13:05:59.981Z,18.01
2022-11-15T13:08:44.955Z,18.04
2022-11-15T13:11:52.539Z,18.03
2022-11-15T13:14:38.581Z,17.18
2022-11-15T13:17:21.129Z,17.24
2022-11-15T13:20:17.087Z,17.25
2022-11-15T13:23:05.324Z,17.09
2022-11-15T13:25:50.332Z,17.37
2022-11-15T13:28:24.311Z,17.53
2022-11-15T13:30:58.608Z,17.73
2022-11-15T13:33:37.514Z,17.75
2022-11-15T13:36:23.380Z,17.82
2022-11-15T13:39:05.537Z,17.91
2022-11-15T13:41:37.463Z,17.92
2022-11-15T13:44:20.823Z,17.82
2022-11-15T13:46:48.397Z,17.98
2022-11-15T13:49:16.103Z,17.97
2022-11-15T13:51:52.957Z,18.04
2022-11-15T13:54:46.522Z,18.04
2022-11-15T13:57:29.752Z,17.65
2022-11-15T14:00:04.178Z,17.56
2022-11-15T14:02:39.783Z,17.17
2022-11-15T14:05:23.668Z,17.41
2022-11-15T14:08:02.179Z,17.14
2022-11-15T14:10:37.241Z,17.08
2022-11-15T14:13:26.797Z,17.34
2022-11-15T14:15:54.526Z,17.28
2022-11-15T14:18:45.881Z,17.33
2022-11-15T14:21:13.940Z,17.28
2022-11-15T14:23:47.384Z,17.06
2022-11-15T14:26:34.132Z,16.98
2022-11-15T14:29:24.325Z,16.89
2022-11-15T14:31:53.010Z,16.74
2022-11-15T14:34:23.080Z,16.52
2022-11-15T14:36:50.714Z,16.42
2022-11-15T14:39:18.279Z,16.40
2022-11-15T14:41:45.856Z,16.39
2022-11-15T14:44:13.504Z,16.41
2022-11-15T14:46:41.030Z,16.39
2022-11-15T14:49:27.212Z,16.41
2022-11-15T14:51:54.841Z,16.40
2022-11-15T14:54:22.407Z,16.35
2022-11-15T14:56:50.578Z,16.32
2022-11-15T14:59:18.618Z,16.34
2022-11-15T15:01:46.190Z,16.30
2022-11-15T15:04:13.803Z,16.27
2022-11-15T15:06:41.405Z,16.17
2022-11-15T15:09:15.708Z,16.16
2022-11-15T15:11:43.525Z,16.10
2022-11-15T15:14:11.367Z,16.06
2022-11-15T15:16:39.062Z,16.03
2022-11-15T15:19:06.612Z,16.02
2022-11-15T15:21:37.499Z,15.98
2022-11-15T15:24:05.789Z,15.95
2022-11-15T15:26:37.424Z,15.89
2022-11-15T15:29:05.983Z,15.86
2022-11-15T15:31:34.055Z,15.85
2022-11-15T15:34:02.146Z,15.78
2022-11-15T15:36:29.720Z,15.75
2022-11-15T15:38:57.375Z,15.58
2022-11-15T15:41:25.718Z,15.46
2022-11-15T15:43:53.592Z,15.36
2022-11-15T15:46:21.842Z,15.29
2022-11-15T15:48:49.532Z,15.24
2022-11-15T15:51:20.515Z,15.12
2022-11-15T15:53:49.261Z,14.99
2022-11-15T15:56:17.378Z,15.07
2022-11-15T15:58:45.549Z,14.99
2022-11-15T16:01:13.753Z,15.03
2022-11-15T16:03:41.636Z,15.00
2022-11-15T16:06:39.273Z,15.02
2022-11-15T16:09:14.987Z,14.97
2022-11-15T16:11:46.792Z,14.82
2022-11-15T16:14:14.709Z,14.80
2022-11-15T16:16:42.530Z,14.76
2022-11-15T16:19:11.988Z,14.77
2022-11-15T16:21:39.556Z,14.83
2022-11-15T16:24:07.155Z,14.78
2022-11-15T16:26:37.864Z,14.50
2022-11-15T16:29:07.925Z,14.76
2022-11-15T16:31:35.867Z,14.81
2022-11-15T16:34:03.481Z,14.80
2022-11-15T16:36:36.182Z,14.80
2022-11-15T16:39:05.045Z,14.76
2022-11-15T16:41:33.392Z,14.74
2022-11-15T16:44:01.081Z,14.70
2022-11-15T16:46:30.009Z,14.77
2022-11-15T16:48:58.455Z,14.57
2022-11-15T16:51:26.373Z,14.59
2022-11-15T16:53:54.027Z,14.65
2022-11-15T16:56:31.038Z,14.37
2022-11-15T16:59:01.374Z,14.43
2022-11-15T17:01:33.848Z,14.45
2022-11-15T17:04:17.556Z,14.37
2022-11-15T17:06:47.618Z,14.51
2022-11-15T17:09:26.207Z,14.16
2022-11-15T17:11:54.270Z,14.26
2022-11-15T17:14:21.914Z,14.41
2022-11-15T17:16:49.497Z,14.39
2022-11-15T17:19:20.036Z,14.46
2022-11-15T17:21:51.485Z,14.41
2022-11-15T17:24:21.044Z,14.39
2022-11-15T17:26:49.084Z,14.45
2022-11-15T17:29:18.693Z,14.41
2022-11-15T17:31:46.594Z,14.43
2022-11-15T17:34:14.141Z,14.40
2022-11-15T17:36:41.700Z,14.39
2022-11-15T17:39:09.269Z,14.39
2022-11-15T17:41:37.397Z,14.38
2022-11-15T17:44:05.591Z,14.33
2022-11-15T17:46:34.021Z,14.08
2022-11-15T17:49:02.073Z,14.19
2022-11-15T17:51:29.801Z,14.24
2022-11-15T17:53:57.543Z,14.30
2022-11-15T17:56:29.775Z,14.25
2022-11-15T17:59:01.137Z,14.19
2022-11-15T18:01:32.513Z,14.29
2022-11-15T18:04:02.858Z,13.93
2022-11-15T18:06:33.700Z,13.99
2022-11-15T18:09:03.785Z,13.92
2022-11-15T18:11:38.487Z,14.06
2022-11-15T18:14:13.247Z,13.90
2022-11-15T18:16:41.265Z,13.93
2022-11-15T18:19:13.186Z,14.14
2022-11-15T18:21:56.314Z,14.21
2022-11-15T18:24:26.484Z,14.34
2022-11-15T18:27:00.603Z,14.36
2022-11-15T18:29:29.329Z,14.32
2022-11-15T18:31:58.656Z,14.18
2022-11-15T18:34:32.025Z,14.15
2022-11-15T18:37:02.545Z,14.41
2022-11-15T18:39:30.499Z,14.48
2022-11-15T18:41:59.271Z,14.53
2022-11-15T18:44:30.298Z,14.52
2022-11-15T18:46:58.606Z,14.55
2022-11-15T18:49:26.336Z,14.48
2022-11-15T18:51:54.147Z,14.55
2022-11-15T18:54:24.512Z,14.56
2022-11-15T18:56:55.969Z,14.60
2022-11-15T18:59:23.717Z,14.62
2022-11-15T19:01:52.213Z,14.63
2022-11-15T19:04:21.040Z,14.63
2022-11-15T19:06:50.216Z,14.63
2022-11-15T19:09:19.354Z,14.65
2022-11-15T19:11:51.296Z,14.60
2022-11-15T19:14:24.207Z,14.57
2022-11-15T19:16:53.060Z,14.55
2022-11-15T19:19:23.787Z,14.41
2022-11-15T19:21:52.791Z,14.14
2022-11-15T19:24:22.600Z,14.23
2022-11-15T19:26:51.327Z,14.22
2022-11-15T19:29:20.076Z,14.12
2022-11-15T19:31:48.821Z,13.88
2022-11-15T19:34:18.019Z,13.98
2022-11-15T19:36:46.052Z,14.04
2022-11-15T19:39:15.229Z,14.17
2022-11-15T19:41:44.890Z,14.17
2022-11-15T19:44:16.680Z,14.21
2022-11-15T19:46:44.922Z,14.20
2022-11-15T19:49:12.924Z,14.17
2022-11-15T19:51:42.622Z,14.21
2022-11-15T19:54:11.069Z,14.07
2022-11-15T19:56:40.229Z,14.19
2022-11-15T19:59:11.414Z,14.25
2022-11-15T20:01:39.729Z,14.26
2022-11-15T20:04:10.151Z,14.26
2022-11-15T20:07:02.806Z,14.25
2022-11-15T20:09:30.833Z,13.98
2022-11-15T20:11:58.929Z,13.86
2022-11-15T20:14:26.520Z,13.85
2022-11-15T20:16:54.696Z,13.90
2022-11-15T20:19:22.505Z,13.89
2022-11-15T20:21:50.262Z,13.87
2022-11-15T20:24:18.036Z,13.92
2022-11-15T20:26:47.120Z,13.96
2022-11-15T20:29:15.370Z,13.89
2022-11-15T20:31:43.365Z,13.93
2022-11-15T20:34:11.588Z,13.86
2022-11-15T20:36:39.140Z,13.89
2022-11-15T20:39:06.788Z,13.94
2022-11-15T20:41:34.534Z,13.93
2022-11-15T20:44:03.297Z,13.97
2022-11-15T20:46:31.267Z,14.03
2022-11-15T20:48:58.846Z,14.07
2022-11-15T20:51:26.447Z,14.07
2022-11-15T20:53:54.272Z,14.08
2022-11-15T20:56:23.464Z,14.11
2022-11-15T20:58:51.543Z,14.15
2022-11-15T21:01:23.798Z,14.13
2022-11-15T21:03:53.731Z,14.11
2022-11-15T21:06:23.097Z,14.11
2022-11-15T21:09:13.147Z,14.15
2022-11-15T21:12:02.275Z,14.07
2022-11-15T21:14:30.392Z,14.08
2022-11-15T21:16:58.243Z,14.06
2022-11-15T21:19:28.973Z,14.11
2022-11-15T21:22:03.748Z,14.13
2022-11-15T21:24:32.197Z,14.10
2022-11-15T21:27:00.854Z,14.04
2022-11-15T21:29:36.465Z,14.05
2022-11-15T21:32:09.288Z,14.01
2022-11-15T21:34:37.519Z,14.07
2022-11-15T21:37:06.552Z,13.95
2022-11-15T21:39:34.374Z,13.85
2022-11-15T21:44:54.440Z,13.52
2022-11-15T21:47:22.064Z,13.59
2022-11-15T21:49:51.584Z,13.63
2022-11-15T21:52:19.195Z,13.78
2022-11-15T21:54:46.795Z,13.86
2022-11-15T21:57:14.618Z,13.84
2022-11-15T22:00:02.172Z,13.79
2022-11-15T22:02:32.100Z,13.76
2022-11-15T22:04:59.719Z,13.66
2022-11-15T22:07:27.425Z,13.72
2022-11-15T22:09:55.089Z,13.74
2022-11-15T22:12:27.037Z,13.78
2022-11-15T22:14:57.289Z,13.88
2022-11-15T22:17:45.152Z,13.93
2022-11-15T22:20:37.731Z,13.91
2022-11-15T22:23:02.214Z,13.91
2022-11-15T22:25:30.755Z,13.86
2022-11-15T22:27:58.453Z,13.91
2022-11-15T22:30:26.577Z,13.88
2022-11-15T22:32:54.495Z,13.90
2022-11-15T22:35:22.128Z,13.85
2022-11-15T22:37:49.842Z,13.98
2022-11-15T22:40:17.771Z,13.98
2022-11-15T22:42:45.996Z,13.99
2022-11-15T22:45:14.248Z,14.01
2022-11-15T22:47:41.917Z,14.03
2022-11-15T22:50:09.983Z,13.92
2022-11-15T22:52:37.615Z,13.78
2022-11-15T22:55:06.189Z,13.71
2022-11-15T22:57:33.861Z,13.48
2022-11-15T23:00:04.944Z,13.39
2022-11-15T23:02:32.791Z,13.46
2022-11-15T23:05:00.400Z,13.39
2022-11-15T23:07:28.671Z,13.33
2022-11-15T23:10:16.408Z,13.14
2022-11-15T23:13:02.380Z,13.04
2022-11-15T23:15:50.346Z,13.01
2022-11-15T23:18:19.364Z,12.91
2022-11-15T23:20:47.124Z,12.82
2022-11-15T23:23:14.844Z,12.78
2022-11-15T23:25:47.957Z,12.71
2022-11-15T23:28:15.824Z,12.59
2022-11-15T23:31:02.070Z,12.53
2022-11-15T23:33:55.631Z,12.64
2022-11-15T23:36:24.197Z,12.59
2022-11-15T23:38:52.212Z,12.59
2022-11-15T23:41:23.693Z,12.67
2022-11-15T23:43:52.793Z,12.72
2022-11-15T23:46:20.916Z,12.74
2022-11-15T23:48:48.607Z,12.77
2022-11-15T23:51:16.359Z,12.79
2022-11-15T23:53:46.189Z,12.70
2022-11-15T23:56:16.803Z,12.67
2022-11-15T23:58:46.091Z,12.59
